KEEN/EEN METAR and TAF weather

Enter ICAO airport designator
Station Type Date Time Source
KEEN METAR 2018/10/16 20:20 UTC NOAA

KEEN 162020Z AUTO 23008KT 210V270 10SM FEW001 SCT050 12/01 A2998 RMK AO2 $


Station Type Date Time Source
KEEN Decoded METAR 2018/10/16 20:20 UTC NOAA

Keene, Dillant-Hopkins Airport, NH, United States (KEEN) 42-54N 072-16W
Oct 16, 2018 - 04:20 PM EDT / 2018.10.16 2020 UTC
Wind: from the SW (230 degrees) at 9 MPH (8 KT) (direction variable):0
Visibility: 10 mile(s):0
Sky conditions: partly cloudy
Temperature: 53 F (12 C)
Dew Point: 33 F (1 C)
Relative Humidity: 46%
Pressure (altimeter): 29.98 in. Hg (1015 hPa)
ob: KEEN 162020Z AUTO 23008KT 210V270 10SM FEW001 SCT050 12/01 A2998 RMK AO2
cycle: 20

Station Type Date Time Source
KEEN TAF UTC NOAA

Error!


Example: see airport list